createdAt,value
2019-02-11T00:04:51.033Z,2.80
2019-02-11T00:10:09.703Z,2.73
2019-02-11T00:15:28.392Z,3.02
2019-02-11T00:20:47.046Z,3.97
2019-02-11T00:26:05.628Z,5.22
2019-02-11T00:31:24.264Z,3.02
2019-02-11T00:36:42.943Z,4.43
2019-02-11T00:42:02.084Z,4.70
2019-02-11T00:47:20.574Z,5.73
2019-02-11T00:52:39.231Z,3.17
2019-02-11T00:57:57.858Z,4.43
2019-02-11T01:03:16.421Z,5.53
2019-02-11T01:08:35.226Z,3.80
2019-02-11T01:13:53.955Z,6.93
2019-02-11T01:19:12.609Z,5.67
2019-02-11T01:24:31.344Z,7.33
2019-02-11T01:29:50.032Z,7.83
2019-02-11T01:35:08.992Z,6.00
2019-02-11T01:40:27.757Z,7.73
2019-02-11T01:45:46.671Z,6.10
2019-02-11T01:51:06.846Z,6.70
2019-02-11T01:56:25.468Z,4.60
2019-02-11T02:01:44.304Z,3.30
2019-02-11T02:07:02.965Z,5.57
2019-02-11T02:12:21.731Z,4.47
2019-02-11T02:17:40.432Z,3.20
2019-02-11T02:22:59.180Z,5.37
2019-02-11T02:28:17.960Z,6.30
2019-02-11T02:33:36.641Z,7.97
2019-02-11T02:38:55.199Z,6.80
2019-02-11T02:44:13.964Z,7.37
2019-02-11T02:49:32.557Z,8.13
2019-02-11T02:54:51.279Z,4.70
2019-02-11T03:00:11.431Z,6.53
2019-02-11T03:05:30.067Z,7.40
2019-02-11T03:10:54.800Z,5.93
2019-02-11T03:16:09.050Z,5.13
2019-02-11T03:21:27.623Z,10.97
2019-02-11T03:26:46.208Z,9.20
2019-02-11T03:32:05.095Z,8.20
2019-02-11T03:37:23.750Z,11.60
2019-02-11T03:42:42.377Z,9.33
2019-02-11T03:48:01.018Z,9.03
2019-02-11T03:53:19.726Z,8.83
2019-02-11T03:58:38.388Z,6.30
2019-02-11T04:03:56.973Z,6.30
2019-02-11T04:09:15.542Z,4.17
2019-02-11T04:14:34.256Z,7.53
2019-02-11T04:19:52.916Z,6.17
2019-02-11T04:25:11.678Z,6.03
2019-02-11T04:30:30.302Z,6.20
2019-02-11T04:35:49.024Z,6.27
2019-02-11T04:41:07.748Z,4.10
2019-02-11T04:46:26.455Z,7.83
2019-02-11T04:51:45.222Z,4.12
2019-02-11T04:57:04.031Z,8.97
2019-02-11T05:02:30.587Z,7.40
2019-02-11T05:07:49.170Z,5.93
2019-02-11T05:13:08.070Z,7.90
2019-02-11T05:18:26.994Z,5.50
2019-02-11T05:23:45.655Z,4.13
2019-02-11T05:29:04.438Z,4.33
2019-02-11T05:34:23.100Z,3.60
2019-02-11T05:39:41.842Z,4.05
2019-02-11T05:45:00.361Z,3.17
2019-02-11T05:50:19.007Z,3.95
2019-02-11T05:55:37.584Z,5.30
2019-02-11T06:00:56.309Z,4.00
2019-02-11T06:06:15.301Z,8.03
2019-02-11T06:11:33.950Z,9.33
2019-02-11T06:16:52.731Z,11.67
2019-02-11T06:22:11.502Z,15.40
2019-02-11T06:27:30.190Z,10.97
2019-02-11T06:32:57.553Z,9.37
2019-02-11T06:38:47.371Z,10.17
2019-02-11T06:49:44.779Z,8.73
2019-02-11T06:55:03.820Z,9.63
2019-02-11T07:00:22.544Z,10.37
2019-02-11T07:05:41.972Z,8.57
2019-02-11T07:11:00.616Z,8.63
2019-02-11T07:16:19.238Z,8.53
2019-02-11T07:21:37.914Z,8.90
2019-02-11T07:33:02.592Z,7.20
2019-02-11T07:38:21.164Z,9.00
2019-02-11T07:43:41.409Z,9.87
2019-02-11T07:49:00.043Z,6.07
2019-02-11T07:54:18.687Z,5.33
2019-02-11T07:59:38.933Z,7.37
2019-02-11T08:10:56.556Z,9.13
2019-02-11T08:16:15.151Z,6.53
2019-02-11T08:21:33.819Z,8.03
2019-02-11T08:26:52.426Z,7.05
2019-02-11T08:32:11.056Z,6.63
2019-02-11T08:37:29.705Z,4.90
2019-02-11T08:42:48.283Z,8.60
2019-02-11T08:48:06.872Z,6.13
2019-02-11T08:53:25.538Z,6.47
2019-02-11T09:04:58.966Z,7.60
2019-02-11T09:10:17.737Z,6.78
2019-02-11T09:15:36.534Z,8.73
2019-02-11T09:20:55.182Z,7.33
2019-02-11T09:26:13.874Z,8.80
2019-02-11T09:31:32.526Z,7.70
2019-02-11T09:36:51.951Z,6.53
2019-02-11T09:42:10.909Z,7.93
2019-02-11T09:47:29.651Z,8.37
2019-02-11T09:52:48.347Z,6.27
2019-02-11T09:58:07.001Z,8.10
2019-02-11T10:03:25.676Z,6.53
2019-02-11T10:08:44.468Z,8.13
2019-02-11T10:14:03.191Z,6.17
2019-02-11T10:19:21.912Z,6.17
2019-02-11T10:24:40.587Z,4.45
2019-02-11T10:29:59.304Z,5.53
2019-02-11T10:35:20.636Z,7.22
2019-02-11T10:40:39.303Z,5.78
2019-02-11T10:45:58.053Z,5.67
2019-02-11T10:51:16.767Z,8.40
2019-02-11T10:56:37.020Z,7.78
2019-02-11T11:01:55.807Z,8.68
2019-02-11T11:07:14.427Z,6.65
2019-02-11T11:12:34.323Z,8.63
2019-02-11T11:17:53.031Z,7.63
2019-02-11T11:23:11.713Z,6.97
2019-02-11T11:28:33.680Z,6.17
2019-02-11T11:33:52.330Z,10.27
2019-02-11T11:39:15.804Z,9.97
2019-02-11T11:44:34.862Z,7.80
2019-02-11T11:49:58.287Z,8.38
2019-02-11T11:55:28.234Z,10.78
2019-02-11T12:00:46.930Z,10.37
2019-02-11T12:06:05.740Z,4.30
2019-02-11T12:11:24.676Z,7.83
2019-02-11T12:16:57.408Z,5.40
2019-02-11T12:22:12.970Z,7.70
2019-02-11T12:27:35.875Z,6.92
2019-02-11T12:32:56.098Z,6.73
2019-02-11T12:38:15.134Z,6.23
2019-02-11T12:43:33.803Z,5.77
2019-02-11T12:48:52.501Z,5.37
2019-02-11T12:54:11.181Z,3.97
2019-02-11T12:59:29.860Z,3.37
2019-02-11T13:04:48.770Z,3.03
2019-02-11T13:10:12.553Z,1.92
2019-02-11T13:15:56.708Z,2.00
2019-02-11T13:20:51.808Z,4.17
2019-02-11T13:26:10.482Z,2.10
2019-02-11T13:31:29.180Z,1.90
2019-02-11T13:36:47.677Z,1.87
2019-02-11T13:42:06.325Z,2.60
2019-02-11T13:47:26.623Z,1.83
2019-02-11T13:52:45.437Z,2.90
2019-02-11T13:58:04.823Z,2.83
2019-02-11T14:03:24.105Z,2.43
2019-02-11T14:08:42.725Z,2.03
2019-02-11T14:14:03.623Z,2.57
2019-02-11T14:19:22.527Z,2.40
2019-02-11T14:24:41.435Z,2.70
2019-02-11T14:30:00.416Z,2.63
2019-02-11T14:35:20.318Z,1.70
2019-02-11T14:40:39.680Z,2.20
2019-02-11T14:46:01.367Z,2.27
2019-02-11T14:51:19.989Z,2.70
2019-02-11T14:56:41.248Z,3.37
2019-02-11T15:02:01.557Z,5.60
2019-02-11T15:07:20.331Z,1.60
2019-02-11T15:12:41.270Z,2.00
2019-02-11T15:17:59.812Z,2.17
2019-02-11T15:23:18.710Z,2.50
2019-02-11T15:28:37.283Z,2.23
2019-02-11T15:33:56.025Z,1.60
2019-02-11T15:39:14.678Z,1.70
2019-02-11T15:45:09.388Z,2.43
2019-02-11T15:50:28.142Z,1.70
2019-02-11T15:55:49.348Z,1.50
2019-02-11T16:01:08.163Z,1.37
2019-02-11T16:06:26.939Z,2.10
2019-02-11T16:11:45.655Z,1.43
2019-02-11T16:17:04.391Z,1.57
2019-02-11T16:22:25.847Z,1.53
2019-02-11T16:27:44.585Z,2.00
2019-02-11T16:33:03.289Z,1.90
2019-02-11T16:38:22.368Z,1.77
2019-02-11T16:50:15.115Z,2.27
2019-02-11T16:55:36.725Z,1.60
2019-02-11T17:00:55.485Z,2.27
2019-02-11T17:06:18.660Z,2.30
2019-02-11T17:11:34.882Z,1.90
2019-02-11T17:16:53.455Z,2.07
2019-02-11T17:22:12.176Z,2.33
2019-02-11T17:27:55.689Z,1.40
2019-02-11T19:12:05.148Z,2.30
2019-02-11T19:17:34.524Z,2.23
2019-02-11T19:41:55.706Z,2.63
2019-02-11T19:47:12.127Z,2.93
2019-02-11T19:58:18.958Z,3.07
2019-02-11T20:03:39.641Z,2.27
2019-02-11T20:08:58.481Z,2.55
2019-02-11T20:14:19.025Z,2.67
2019-02-11T20:19:38.327Z,2.63
2019-02-11T20:24:57.260Z,2.60
2019-02-11T20:30:39.712Z,3.12
2019-02-11T20:36:04.119Z,3.00
2019-02-11T20:41:19.052Z,3.20
2019-02-11T20:46:39.584Z,2.90
2019-02-11T20:52:06.118Z,2.53
2019-02-11T20:57:25.056Z,2.90
2019-02-11T21:02:43.950Z,2.57
2019-02-11T21:08:04.159Z,3.23
2019-02-11T21:13:24.818Z,2.83
2019-02-11T21:18:43.667Z,3.83
2019-02-11T21:24:02.394Z,2.22
2019-02-11T21:29:21.090Z,3.50
2019-02-11T21:34:39.829Z,2.67
2019-02-11T21:39:58.592Z,3.27
2019-02-11T21:45:17.428Z,2.83
2019-02-11T21:50:36.241Z,2.67
2019-02-11T21:55:54.998Z,3.80
2019-02-11T22:01:16.656Z,2.93
2019-02-11T22:06:35.731Z,2.27
2019-02-11T22:11:54.456Z,2.07
2019-02-11T22:17:13.499Z,2.30
2019-02-11T22:22:32.463Z,3.93
2019-02-11T22:27:51.176Z,2.50
2019-02-11T22:33:10.008Z,2.60
2019-02-11T22:38:29.650Z,2.87
2019-02-11T22:43:50.123Z,3.90
2019-02-11T22:49:08.891Z,3.87
2019-02-11T22:54:27.847Z,4.23
2019-02-11T22:59:46.573Z,3.53
2019-02-11T23:05:06.186Z,3.43
2019-02-11T23:10:27.860Z,3.17
2019-02-11T23:15:46.598Z,3.27
2019-02-11T23:21:05.654Z,2.43
2019-02-11T23:26:24.336Z,2.27
2019-02-11T23:31:43.089Z,3.40
2019-02-11T23:37:01.754Z,4.60
2019-02-11T23:42:20.497Z,3.53
2019-02-11T23:47:39.562Z,3.63
2019-02-11T23:52:58.522Z,4.03
2019-02-11T23:58:17.325Z,4.70
